sensor_id;sensor_type;location;lat;lon;timestamp;temperature;humidity
3756;DHT22;1893;52.526;13.360;2024-01-30T00:01:37;4.10;99.90
3756;DHT22;1893;52.526;13.360;2024-01-30T00:04:03;4.10;99.90
3756;DHT22;1893;52.526;13.360;2024-01-30T00:06:28;4.10;99.90
3756;DHT22;1893;52.526;13.360;2024-01-30T00:08:54;4.10;99.90
3756;DHT22;1893;52.526;13.360;2024-01-30T00:11:20;4.00;99.90
3756;DHT22;1893;52.526;13.360;2024-01-30T00:13:46;4.10;99.90
3756;DHT22;1893;52.526;13.360;2024-01-30T00:16:21;4.00;99.90
3756;DHT22;1893;52.526;13.360;2024-01-30T00:18:48;4.00;99.90
3756;DHT22;1893;52.526;13.360;2024-01-30T00:21:13;4.10;99.90
3756;DHT22;1893;52.526;13.360;2024-01-30T00:23:39;4.10;99.90
3756;DHT22;1893;52.526;13.360;2024-01-30T00:26:05;4.00;99.90
3756;DHT22;1893;52.526;13.360;2024-01-30T00:28:32;4.00;99.90
3756;DHT22;1893;52.526;13.360;2024-01-30T00:30:58;3.90;99.90
3756;DHT22;1893;52.526;13.360;2024-01-30T00:33:24;3.90;99.90
3756;DHT22;1893;52.526;13.360;2024-01-30T00:35:49;3.90;99.90
3756;DHT22;1893;52.526;13.360;2024-01-30T00:38:15;3.80;99.90
3756;DHT22;1893;52.526;13.360;2024-01-30T00:40:41;3.80;99.90
3756;DHT22;1893;52.526;13.360;2024-01-30T00:43:06;3.80;99.90
3756;DHT22;1893;52.526;13.360;2024-01-30T00:45:32;3.90;99.90
3756;DHT22;1893;52.526;13.360;2024-01-30T00:47:57;3.80;99.90
3756;DHT22;1893;52.526;13.360;2024-01-30T00:50:23;3.90;99.90
3756;DHT22;1893;52.526;13.360;2024-01-30T00:52:49;3.80;99.90
3756;DHT22;1893;52.526;13.360;2024-01-30T00:55:14;3.70;99.90
3756;DHT22;1893;52.526;13.360;2024-01-30T00:57:40;3.60;99.90
3756;DHT22;1893;52.526;13.360;2024-01-30T01:00:06;3.70;99.90
3756;DHT22;1893;52.526;13.360;2024-01-30T01:02:34;3.60;99.90
3756;DHT22;1893;52.526;13.360;2024-01-30T01:05:00;3.70;99.90
3756;DHT22;1893;52.526;13.360;2024-01-30T01:07:25;3.60;99.90
3756;DHT22;1893;52.526;13.360;2024-01-30T01:09:51;3.50;99.90
3756;DHT22;1893;52.526;13.360;2024-01-30T01:12:17;3.50;99.90
3756;DHT22;1893;52.526;13.360;2024-01-30T01:14:43;3.50;99.90
3756;DHT22;1893;52.526;13.360;2024-01-30T01:17:08;3.50;99.90
3756;DHT22;1893;52.526;13.360;2024-01-30T01:19:34;3.50;99.90
3756;DHT22;1893;52.526;13.360;2024-01-30T01:21:59;3.50;99.90
3756;DHT22;1893;52.526;13.360;2024-01-30T01:24:25;3.50;99.90
3756;DHT22;1893;52.526;13.360;2024-01-30T01:26:51;3.50;99.90
3756;DHT22;1893;52.526;13.360;2024-01-30T01:29:16;3.50;99.90
3756;DHT22;1893;52.526;13.360;2024-01-30T01:31:42;3.60;99.90
3756;DHT22;1893;52.526;13.360;2024-01-30T01:34:11;3.50;99.90
3756;DHT22;1893;52.526;13.360;2024-01-30T01:36:37;3.60;99.90
3756;DHT22;1893;52.526;13.360;2024-01-30T01:39:03;3.50;99.90
3756;DHT22;1893;52.526;13.360;2024-01-30T01:41:32;3.50;99.90
3756;DHT22;1893;52.526;13.360;2024-01-30T01:43:59;3.40;99.90
3756;DHT22;1893;52.526;13.360;2024-01-30T01:46:27;3.40;99.90
3756;DHT22;1893;52.526;13.360;2024-01-30T01:48:53;3.40;99.90
3756;DHT22;1893;52.526;13.360;2024-01-30T01:51:19;3.30;99.90
3756;DHT22;1893;52.526;13.360;2024-01-30T01:53:45;3.30;99.90
3756;DHT22;1893;52.526;13.360;2024-01-30T01:56:11;3.20;99.90
3756;DHT22;1893;52.526;13.360;2024-01-30T01:58:37;3.40;99.90
3756;DHT22;1893;52.526;13.360;2024-01-30T02:01:04;3.30;99.90
3756;DHT22;1893;52.526;13.360;2024-01-30T02:03:30;3.30;99.90
3756;DHT22;1893;52.526;13.360;2024-01-30T02:05:56;3.30;99.90
3756;DHT22;1893;52.526;13.360;2024-01-30T02:08:23;3.20;99.90
3756;DHT22;1893;52.526;13.360;2024-01-30T02:10:49;3.20;99.90
3756;DHT22;1893;52.526;13.360;2024-01-30T02:13:15;3.30;99.90
3756;DHT22;1893;52.526;13.360;2024-01-30T02:15:40;3.30;99.90
3756;DHT22;1893;52.526;13.360;2024-01-30T02:18:06;3.20;99.90
3756;DHT22;1893;52.526;13.360;2024-01-30T02:20:35;3.20;99.90
3756;DHT22;1893;52.526;13.360;2024-01-30T02:23:01;3.20;99.90
3756;DHT22;1893;52.526;13.360;2024-01-30T02:25:39;3.10;99.90
3756;DHT22;1893;52.526;13.360;2024-01-30T02:28:10;3.10;99.90
3756;DHT22;1893;52.526;13.360;2024-01-30T02:30:36;3.10;99.90
3756;DHT22;1893;52.526;13.360;2024-01-30T02:33:01;3.10;99.90
3756;DHT22;1893;52.526;13.360;2024-01-30T02:35:27;3.10;99.90
3756;DHT22;1893;52.526;13.360;2024-01-30T02:37:52;3.10;99.90
3756;DHT22;1893;52.526;13.360;2024-01-30T02:40:18;3.10;99.90
3756;DHT22;1893;52.526;13.360;2024-01-30T02:42:44;3.10;99.90
3756;DHT22;1893;52.526;13.360;2024-01-30T02:45:10;3.10;99.90
3756;DHT22;1893;52.526;13.360;2024-01-30T02:47:36;3.10;99.90
3756;DHT22;1893;52.526;13.360;2024-01-30T02:50:01;3.10;99.90
3756;DHT22;1893;52.526;13.360;2024-01-30T02:52:27;3.10;99.90
3756;DHT22;1893;52.526;13.360;2024-01-30T02:54:53;3.00;99.90
3756;DHT22;1893;52.526;13.360;2024-01-30T02:57:18;2.90;99.90
3756;DHT22;1893;52.526;13.360;2024-01-30T02:59:44;2.90;99.90
3756;DHT22;1893;52.526;13.360;2024-01-30T03:02:09;2.90;99.90
3756;DHT22;1893;52.526;13.360;2024-01-30T03:04:35;2.80;99.90
3756;DHT22;1893;52.526;13.360;2024-01-30T03:07:00;2.80;99.90
3756;DHT22;1893;52.526;13.360;2024-01-30T03:09:26;2.80;99.90
3756;DHT22;1893;52.526;13.360;2024-01-30T03:11:51;2.80;99.90
3756;DHT22;1893;52.526;13.360;2024-01-30T03:14:17;2.70;99.90
3756;DHT22;1893;52.526;13.360;2024-01-30T03:16:43;2.70;99.90
3756;DHT22;1893;52.526;13.360;2024-01-30T03:19:08;2.70;99.90
3756;DHT22;1893;52.526;13.360;2024-01-30T03:21:34;2.90;99.90
3756;DHT22;1893;52.526;13.360;2024-01-30T03:24:00;2.70;99.90
3756;DHT22;1893;52.526;13.360;2024-01-30T03:26:26;2.60;99.90
3756;DHT22;1893;52.526;13.360;2024-01-30T03:28:51;2.60;99.90
3756;DHT22;1893;52.526;13.360;2024-01-30T03:31:17;2.60;99.90
3756;DHT22;1893;52.526;13.360;2024-01-30T03:37:05;2.60;99.90
3756;DHT22;1893;52.526;13.360;2024-01-30T03:39:30;2.60;99.90
3756;DHT22;1893;52.526;13.360;2024-01-30T03:41:56;2.60;99.90
3756;DHT22;1893;52.526;13.360;2024-01-30T03:44:21;2.60;99.90
3756;DHT22;1893;52.526;13.360;2024-01-30T03:46:47;2.60;99.90
3756;DHT22;1893;52.526;13.360;2024-01-30T03:49:13;2.60;99.90
3756;DHT22;1893;52.526;13.360;2024-01-30T03:51:38;2.60;99.90
3756;DHT22;1893;52.526;13.360;2024-01-30T03:54:04;2.60;99.90
3756;DHT22;1893;52.526;13.360;2024-01-30T03:56:29;2.70;99.90
3756;DHT22;1893;52.526;13.360;2024-01-30T03:58:55;2.60;99.90
3756;DHT22;1893;52.526;13.360;2024-01-30T04:01:22;2.60;99.90
3756;DHT22;1893;52.526;13.360;2024-01-30T04:03:47;2.60;99.90
3756;DHT22;1893;52.526;13.360;2024-01-30T04:06:13;2.60;99.90
3756;DHT22;1893;52.526;13.360;2024-01-30T04:08:39;2.70;99.90
3756;DHT22;1893;52.526;13.360;2024-01-30T04:11:05;2.70;99.90
3756;DHT22;1893;52.526;13.360;2024-01-30T04:13:33;2.70;99.90
3756;DHT22;1893;52.526;13.360;2024-01-30T04:16:02;2.70;99.90
3756;DHT22;1893;52.526;13.360;2024-01-30T04:18:29;2.60;99.90
3756;DHT22;1893;52.526;13.360;2024-01-30T04:20:54;2.70;99.90
3756;DHT22;1893;52.526;13.360;2024-01-30T04:23:20;2.60;99.90
3756;DHT22;1893;52.526;13.360;2024-01-30T04:25:46;2.60;99.90
3756;DHT22;1893;52.526;13.360;2024-01-30T04:28:12;2.60;99.90
3756;DHT22;1893;52.526;13.360;2024-01-30T04:30:38;2.60;99.90
3756;DHT22;1893;52.526;13.360;2024-01-30T04:33:04;2.60;99.90
3756;DHT22;1893;52.526;13.360;2024-01-30T04:35:29;2.60;99.90
3756;DHT22;1893;52.526;13.360;2024-01-30T04:37:55;2.60;99.90
3756;DHT22;1893;52.526;13.360;2024-01-30T04:40:21;2.60;99.90
3756;DHT22;1893;52.526;13.360;2024-01-30T04:42:47;2.50;99.90
3756;DHT22;1893;52.526;13.360;2024-01-30T04:45:12;2.60;99.90
3756;DHT22;1893;52.526;13.360;2024-01-30T04:47:38;2.50;99.90
3756;DHT22;1893;52.526;13.360;2024-01-30T04:50:06;2.50;99.90
3756;DHT22;1893;52.526;13.360;2024-01-30T04:52:32;2.50;99.90
3756;DHT22;1893;52.526;13.360;2024-01-30T04:54:57;2.50;99.90
3756;DHT22;1893;52.526;13.360;2024-01-30T04:57:23;2.60;99.90
3756;DHT22;1893;52.526;13.360;2024-01-30T04:59:49;2.60;99.90
3756;DHT22;1893;52.526;13.360;2024-01-30T05:02:15;2.60;99.90
3756;DHT22;1893;52.526;13.360;2024-01-30T05:04:41;2.60;99.90
3756;DHT22;1893;52.526;13.360;2024-01-30T05:07:06;2.60;99.90
3756;DHT22;1893;52.526;13.360;2024-01-30T05:09:32;2.60;99.90
3756;DHT22;1893;52.526;13.360;2024-01-30T05:11:58;2.60;99.90
3756;DHT22;1893;52.526;13.360;2024-01-30T05:14:23;2.60;99.90
3756;DHT22;1893;52.526;13.360;2024-01-30T05:16:49;2.60;99.90
3756;DHT22;1893;52.526;13.360;2024-01-30T05:19:15;2.60;99.90
3756;DHT22;1893;52.526;13.360;2024-01-30T05:21:41;2.70;99.90
3756;DHT22;1893;52.526;13.360;2024-01-30T05:24:07;2.60;99.90
3756;DHT22;1893;52.526;13.360;2024-01-30T05:26:35;2.70;99.90
3756;DHT22;1893;52.526;13.360;2024-01-30T05:29:00;2.70;99.90
3756;DHT22;1893;52.526;13.360;2024-01-30T05:31:26;2.70;99.90
3756;DHT22;1893;52.526;13.360;2024-01-30T05:33:52;2.80;99.90
3756;DHT22;1893;52.526;13.360;2024-01-30T05:36:18;2.80;99.90
3756;DHT22;1893;52.526;13.360;2024-01-30T05:38:43;2.80;99.90
3756;DHT22;1893;52.526;13.360;2024-01-30T05:41:09;2.80;99.90
3756;DHT22;1893;52.526;13.360;2024-01-30T05:43:35;2.90;99.90
3756;DHT22;1893;52.526;13.360;2024-01-30T05:46:00;2.80;99.90
3756;DHT22;1893;52.526;13.360;2024-01-30T05:48:26;2.90;99.90
3756;DHT22;1893;52.526;13.360;2024-01-30T05:50:51;2.80;99.90
3756;DHT22;1893;52.526;13.360;2024-01-30T05:53:17;2.90;99.90
3756;DHT22;1893;52.526;13.360;2024-01-30T05:55:42;2.80;99.90
3756;DHT22;1893;52.526;13.360;2024-01-30T05:58:08;2.80;99.90
3756;DHT22;1893;52.526;13.360;2024-01-30T06:00:34;2.80;99.90
3756;DHT22;1893;52.526;13.360;2024-01-30T06:02:59;2.90;99.90
3756;DHT22;1893;52.526;13.360;2024-01-30T06:05:27;3.10;99.90
3756;DHT22;1893;52.526;13.360;2024-01-30T06:07:56;2.80;99.90
3756;DHT22;1893;52.526;13.360;2024-01-30T06:10:22;2.80;99.90
3756;DHT22;1893;52.526;13.360;2024-01-30T06:12:47;2.80;99.90
3756;DHT22;1893;52.526;13.360;2024-01-30T06:15:13;2.90;99.90
3756;DHT22;1893;52.526;13.360;2024-01-30T06:17:39;2.90;99.90
3756;DHT22;1893;52.526;13.360;2024-01-30T06:20:06;2.90;99.90
3756;DHT22;1893;52.526;13.360;2024-01-30T06:22:31;2.90;99.90
3756;DHT22;1893;52.526;13.360;2024-01-30T06:24:57;2.90;99.90
3756;DHT22;1893;52.526;13.360;2024-01-30T06:27:22;2.90;99.90
3756;DHT22;1893;52.526;13.360;2024-01-30T06:29:48;2.90;99.90
3756;DHT22;1893;52.526;13.360;2024-01-30T06:32:14;2.90;99.90
3756;DHT22;1893;52.526;13.360;2024-01-30T06:34:41;2.90;99.90
3756;DHT22;1893;52.526;13.360;2024-01-30T06:37:06;2.90;99.90
3756;DHT22;1893;52.526;13.360;2024-01-30T06:39:32;3.00;99.90
3756;DHT22;1893;52.526;13.360;2024-01-30T06:41:58;3.00;99.90
3756;DHT22;1893;52.526;13.360;2024-01-30T06:44:23;3.10;99.90
3756;DHT22;1893;52.526;13.360;2024-01-30T06:46:49;3.00;99.90
3756;DHT22;1893;52.526;13.360;2024-01-30T06:49:15;3.10;99.90
3756;DHT22;1893;52.526;13.360;2024-01-30T06:51:40;3.00;99.90
3756;DHT22;1893;52.526;13.360;2024-01-30T06:54:06;3.00;99.90
3756;DHT22;1893;52.526;13.360;2024-01-30T06:56:31;3.00;99.90
3756;DHT22;1893;52.526;13.360;2024-01-30T06:58:57;3.10;99.90
3756;DHT22;1893;52.526;13.360;2024-01-30T07:01:28;3.00;99.90
3756;DHT22;1893;52.526;13.360;2024-01-30T07:03:54;3.10;99.90
3756;DHT22;1893;52.526;13.360;2024-01-30T07:06:20;3.20;99.90
3756;DHT22;1893;52.526;13.360;2024-01-30T07:08:46;3.10;99.90
3756;DHT22;1893;52.526;13.360;2024-01-30T07:11:18;3.10;99.90
3756;DHT22;1893;52.526;13.360;2024-01-30T07:13:44;3.10;99.90
3756;DHT22;1893;52.526;13.360;2024-01-30T07:16:10;3.10;99.90
3756;DHT22;1893;52.526;13.360;2024-01-30T07:18:35;3.10;99.90
3756;DHT22;1893;52.526;13.360;2024-01-30T07:21:01;3.20;99.90
3756;DHT22;1893;52.526;13.360;2024-01-30T07:23:26;3.20;99.90
3756;DHT22;1893;52.526;13.360;2024-01-30T07:25:52;3.20;99.90
3756;DHT22;1893;52.526;13.360;2024-01-30T07:28:17;3.30;99.90
3756;DHT22;1893;52.526;13.360;2024-01-30T07:30:43;3.20;99.90
3756;DHT22;1893;52.526;13.360;2024-01-30T07:33:09;3.40;99.90
3756;DHT22;1893;52.526;13.360;2024-01-30T07:35:35;3.30;99.90
3756;DHT22;1893;52.526;13.360;2024-01-30T07:38:01;3.40;99.90
3756;DHT22;1893;52.526;13.360;2024-01-30T07:40:27;3.50;99.90
3756;DHT22;1893;52.526;13.360;2024-01-30T07:42:53;3.50;99.90
3756;DHT22;1893;52.526;13.360;2024-01-30T07:45:19;3.50;99.90
3756;DHT22;1893;52.526;13.360;2024-01-30T07:47:50;3.50;99.90
3756;DHT22;1893;52.526;13.360;2024-01-30T07:50:15;3.60;99.90
3756;DHT22;1893;52.526;13.360;2024-01-30T07:52:42;3.60;99.90
3756;DHT22;1893;52.526;13.360;2024-01-30T07:55:08;3.60;99.90
3756;DHT22;1893;52.526;13.360;2024-01-30T07:57:33;3.60;99.90
3756;DHT22;1893;52.526;13.360;2024-01-30T08:00:02;3.60;99.90
3756;DHT22;1893;52.526;13.360;2024-01-30T08:02:28;3.60;99.90
3756;DHT22;1893;52.526;13.360;2024-01-30T08:04:54;3.60;99.90
3756;DHT22;1893;52.526;13.360;2024-01-30T08:07:19;3.60;99.90
3756;DHT22;1893;52.526;13.360;2024-01-30T08:09:47;3.70;99.90
3756;DHT22;1893;52.526;13.360;2024-01-30T08:12:13;3.70;99.90
3756;DHT22;1893;52.526;13.360;2024-01-30T08:14:39;3.70;99.90
3756;DHT22;1893;52.526;13.360;2024-01-30T08:17:05;3.80;99.90
3756;DHT22;1893;52.526;13.360;2024-01-30T08:19:33;3.80;99.90
3756;DHT22;1893;52.526;13.360;2024-01-30T08:21:58;3.80;99.90
3756;DHT22;1893;52.526;13.360;2024-01-30T08:24:24;3.80;99.90
3756;DHT22;1893;52.526;13.360;2024-01-30T08:26:49;3.90;99.90
3756;DHT22;1893;52.526;13.360;2024-01-30T08:29:15;4.00;99.90
3756;DHT22;1893;52.526;13.360;2024-01-30T08:31:40;4.00;99.90
3756;DHT22;1893;52.526;13.360;2024-01-30T08:34:06;4.10;99.90
3756;DHT22;1893;52.526;13.360;2024-01-30T08:36:32;4.10;99.90
3756;DHT22;1893;52.526;13.360;2024-01-30T08:38:57;4.20;99.90
3756;DHT22;1893;52.526;13.360;2024-01-30T08:41:24;4.20;99.90
3756;DHT22;1893;52.526;13.360;2024-01-30T08:43:49;4.30;99.90
3756;DHT22;1893;52.526;13.360;2024-01-30T08:46:20;4.40;99.90
3756;DHT22;1893;52.526;13.360;2024-01-30T08:48:46;4.40;99.90
3756;DHT22;1893;52.526;13.360;2024-01-30T08:51:13;4.50;99.90
3756;DHT22;1893;52.526;13.360;2024-01-30T08:53:39;4.60;99.90
3756;DHT22;1893;52.526;13.360;2024-01-30T08:56:06;4.80;99.90
3756;DHT22;1893;52.526;13.360;2024-01-30T08:58:32;5.10;99.90
3756;DHT22;1893;52.526;13.360;2024-01-30T09:00:58;5.30;99.90
3756;DHT22;1893;52.526;13.360;2024-01-30T09:03:24;5.60;99.90
3756;DHT22;1893;52.526;13.360;2024-01-30T09:05:50;5.80;99.90
3756;DHT22;1893;52.526;13.360;2024-01-30T09:08:15;5.80;99.90
3756;DHT22;1893;52.526;13.360;2024-01-30T09:10:41;5.70;99.90
3756;DHT22;1893;52.526;13.360;2024-01-30T09:13:07;6.00;99.90
3756;DHT22;1893;52.526;13.360;2024-01-30T09:15:32;5.90;99.90
3756;DHT22;1893;52.526;13.360;2024-01-30T09:17:58;6.00;99.90
3756;DHT22;1893;52.526;13.360;2024-01-30T09:20:23;5.90;99.90
3756;DHT22;1893;52.526;13.360;2024-01-30T09:22:49;6.00;99.90
3756;DHT22;1893;52.526;13.360;2024-01-30T09:25:15;6.10;99.90
3756;DHT22;1893;52.526;13.360;2024-01-30T09:27:41;6.10;99.90
3756;DHT22;1893;52.526;13.360;2024-01-30T09:30:07;6.10;99.90
3756;DHT22;1893;52.526;13.360;2024-01-30T09:32:32;6.10;99.90
3756;DHT22;1893;52.526;13.360;2024-01-30T09:34:58;6.20;99.90
3756;DHT22;1893;52.526;13.360;2024-01-30T09:37:27;6.00;99.90
3756;DHT22;1893;52.526;13.360;2024-01-30T09:39:52;6.10;99.90
3756;DHT22;1893;52.526;13.360;2024-01-30T09:42:25;6.20;99.90
3756;DHT22;1893;52.526;13.360;2024-01-30T09:44:53;6.20;99.90
3756;DHT22;1893;52.526;13.360;2024-01-30T09:47:19;6.30;99.90
3756;DHT22;1893;52.526;13.360;2024-01-30T09:49:44;6.40;99.90
3756;DHT22;1893;52.526;13.360;2024-01-30T09:52:11;6.40;99.90
3756;DHT22;1893;52.526;13.360;2024-01-30T09:54:38;6.40;99.90
3756;DHT22;1893;52.526;13.360;2024-01-30T09:57:04;6.50;99.90
3756;DHT22;1893;52.526;13.360;2024-01-30T09:59:30;6.70;99.90
3756;DHT22;1893;52.526;13.360;2024-01-30T10:01:57;6.90;99.90
3756;DHT22;1893;52.526;13.360;2024-01-30T10:04:22;6.90;99.90
3756;DHT22;1893;52.526;13.360;2024-01-30T10:06:48;6.90;99.90
3756;DHT22;1893;52.526;13.360;2024-01-30T10:09:14;7.10;99.90
3756;DHT22;1893;52.526;13.360;2024-01-30T10:11:39;7.20;99.90
3756;DHT22;1893;52.526;13.360;2024-01-30T10:14:05;7.40;99.90
3756;DHT22;1893;52.526;13.360;2024-01-30T10:16:31;7.40;99.90
3756;DHT22;1893;52.526;13.360;2024-01-30T10:18:56;7.40;99.90
3756;DHT22;1893;52.526;13.360;2024-01-30T10:21:22;7.50;99.90
3756;DHT22;1893;52.526;13.360;2024-01-30T10:23:49;7.70;99.90
3756;DHT22;1893;52.526;13.360;2024-01-30T10:26:16;7.60;99.90
3756;DHT22;1893;52.526;13.360;2024-01-30T10:28:42;7.20;99.90
3756;DHT22;1893;52.526;13.360;2024-01-30T10:31:08;7.30;99.90
3756;DHT22;1893;52.526;13.360;2024-01-30T10:33:34;7.40;99.90
3756;DHT22;1893;52.526;13.360;2024-01-30T10:36:08;7.20;99.90
3756;DHT22;1893;52.526;13.360;2024-01-30T10:38:36;7.20;99.90
3756;DHT22;1893;52.526;13.360;2024-01-30T10:41:03;7.30;99.90
3756;DHT22;1893;52.526;13.360;2024-01-30T10:43:32;7.30;99.90
3756;DHT22;1893;52.526;13.360;2024-01-30T10:46:10;7.60;99.90
3756;DHT22;1893;52.526;13.360;2024-01-30T10:48:42;7.80;99.90
3756;DHT22;1893;52.526;13.360;2024-01-30T10:51:10;8.00;99.90
3756;DHT22;1893;52.526;13.360;2024-01-30T10:53:36;8.00;99.90
3756;DHT22;1893;52.526;13.360;2024-01-30T10:56:03;8.20;99.90
3756;DHT22;1893;52.526;13.360;2024-01-30T10:58:29;8.20;99.90
3756;DHT22;1893;52.526;13.360;2024-01-30T11:00:55;8.20;99.90
3756;DHT22;1893;52.526;13.360;2024-01-30T11:03:22;8.20;99.90
3756;DHT22;1893;52.526;13.360;2024-01-30T11:05:52;8.20;99.90
3756;DHT22;1893;52.526;13.360;2024-01-30T11:08:24;8.10;99.90
3756;DHT22;1893;52.526;13.360;2024-01-30T11:10:55;8.20;99.90
3756;DHT22;1893;52.526;13.360;2024-01-30T11:13:21;8.30;99.90
3756;DHT22;1893;52.526;13.360;2024-01-30T11:15:48;8.50;99.90
3756;DHT22;1893;52.526;13.360;2024-01-30T11:18:26;8.40;99.90
3756;DHT22;1893;52.526;13.360;2024-01-30T11:20:52;8.40;99.90
3756;DHT22;1893;52.526;13.360;2024-01-30T11:23:18;8.30;99.90
3756;DHT22;1893;52.526;13.360;2024-01-30T11:25:44;8.30;99.90
3756;DHT22;1893;52.526;13.360;2024-01-30T11:28:14;8.40;99.90
3756;DHT22;1893;52.526;13.360;2024-01-30T11:30:44;8.70;99.90
3756;DHT22;1893;52.526;13.360;2024-01-30T11:33:11;8.60;99.90
3756;DHT22;1893;52.526;13.360;2024-01-30T11:35:39;8.60;99.90
3756;DHT22;1893;52.526;13.360;2024-01-30T11:38:06;8.70;99.90
3756;DHT22;1893;52.526;13.360;2024-01-30T11:40:32;8.80;99.90
3756;DHT22;1893;52.526;13.360;2024-01-30T11:43:00;8.70;99.90
3756;DHT22;1893;52.526;13.360;2024-01-30T11:45:29;8.90;99.90
3756;DHT22;1893;52.526;13.360;2024-01-30T11:47:55;8.70;99.90
3756;DHT22;1893;52.526;13.360;2024-01-30T11:50:21;8.50;99.90
3756;DHT22;1893;52.526;13.360;2024-01-30T11:52:47;8.50;99.90
3756;DHT22;1893;52.526;13.360;2024-01-30T11:55:14;8.50;99.90
3756;DHT22;1893;52.526;13.360;2024-01-30T11:57:40;8.50;99.90
3756;DHT22;1893;52.526;13.360;2024-01-30T12:00:13;8.60;99.90
3756;DHT22;1893;52.526;13.360;2024-01-30T12:02:40;8.70;99.90
3756;DHT22;1893;52.526;13.360;2024-01-30T12:05:06;8.80;99.90
3756;DHT22;1893;52.526;13.360;2024-01-30T12:07:33;8.80;99.90
3756;DHT22;1893;52.526;13.360;2024-01-30T12:09:59;8.80;99.90
3756;DHT22;1893;52.526;13.360;2024-01-30T12:12:26;8.80;99.90
3756;DHT22;1893;52.526;13.360;2024-01-30T12:14:52;9.00;99.90
3756;DHT22;1893;52.526;13.360;2024-01-30T12:17:31;8.70;99.90
3756;DHT22;1893;52.526;13.360;2024-01-30T12:22:51;9.10;99.90
3756;DHT22;1893;52.526;13.360;2024-01-30T12:25:20;9.20;99.90
3756;DHT22;1893;52.526;13.360;2024-01-30T12:27:52;9.30;99.90
3756;DHT22;1893;52.526;13.360;2024-01-30T12:30:20;9.30;99.90
3756;DHT22;1893;52.526;13.360;2024-01-30T12:32:47;9.40;99.90
3756;DHT22;1893;52.526;13.360;2024-01-30T12:35:16;9.70;99.90
3756;DHT22;1893;52.526;13.360;2024-01-30T12:37:43;9.30;99.90
3756;DHT22;1893;52.526;13.360;2024-01-30T12:40:18;9.30;99.90
3756;DHT22;1893;52.526;13.360;2024-01-30T12:42:46;9.20;99.90
3756;DHT22;1893;52.526;13.360;2024-01-30T12:45:14;9.10;99.90
3756;DHT22;1893;52.526;13.360;2024-01-30T12:47:41;9.00;99.90
3756;DHT22;1893;52.526;13.360;2024-01-30T12:50:07;9.00;99.90
3756;DHT22;1893;52.526;13.360;2024-01-30T12:52:33;9.10;99.90
3756;DHT22;1893;52.526;13.360;2024-01-30T12:54:58;9.20;99.90
3756;DHT22;1893;52.526;13.360;2024-01-30T12:57:24;9.50;99.90
3756;DHT22;1893;52.526;13.360;2024-01-30T12:59:50;9.70;99.90
3756;DHT22;1893;52.526;13.360;2024-01-30T13:02:16;9.60;99.90
3756;DHT22;1893;52.526;13.360;2024-01-30T13:04:42;9.70;99.90
3756;DHT22;1893;52.526;13.360;2024-01-30T13:07:08;9.80;99.90
3756;DHT22;1893;52.526;13.360;2024-01-30T13:09:33;9.70;99.90
3756;DHT22;1893;52.526;13.360;2024-01-30T13:11:59;9.60;99.90
3756;DHT22;1893;52.526;13.360;2024-01-30T13:14:25;9.50;99.90
3756;DHT22;1893;52.526;13.360;2024-01-30T13:16:51;9.10;99.90
3756;DHT22;1893;52.526;13.360;2024-01-30T13:19:17;8.90;99.90
3756;DHT22;1893;52.526;13.360;2024-01-30T13:21:43;8.80;99.90
3756;DHT22;1893;52.526;13.360;2024-01-30T13:24:09;8.80;99.90
3756;DHT22;1893;52.526;13.360;2024-01-30T13:26:35;8.80;99.90
3756;DHT22;1893;52.526;13.360;2024-01-30T13:29:00;8.80;99.90
3756;DHT22;1893;52.526;13.360;2024-01-30T13:31:26;8.80;99.90
3756;DHT22;1893;52.526;13.360;2024-01-30T13:33:53;8.70;99.90
3756;DHT22;1893;52.526;13.360;2024-01-30T13:36:19;8.60;99.90
3756;DHT22;1893;52.526;13.360;2024-01-30T13:38:45;8.60;99.90
3756;DHT22;1893;52.526;13.360;2024-01-30T13:41:10;8.70;99.90
3756;DHT22;1893;52.526;13.360;2024-01-30T13:43:36;8.70;99.90
3756;DHT22;1893;52.526;13.360;2024-01-30T13:46:02;8.70;99.90
3756;DHT22;1893;52.526;13.360;2024-01-30T13:48:28;8.70;99.90
3756;DHT22;1893;52.526;13.360;2024-01-30T13:50:55;8.70;99.90
3756;DHT22;1893;52.526;13.360;2024-01-30T13:53:21;8.80;99.90
3756;DHT22;1893;52.526;13.360;2024-01-30T13:55:46;8.70;99.90
3756;DHT22;1893;52.526;13.360;2024-01-30T13:58:12;8.70;99.90
3756;DHT22;1893;52.526;13.360;2024-01-30T14:00:38;8.70;99.90
3756;DHT22;1893;52.526;13.360;2024-01-30T14:03:04;8.60;99.90
3756;DHT22;1893;52.526;13.360;2024-01-30T14:05:29;8.60;99.90
3756;DHT22;1893;52.526;13.360;2024-01-30T14:07:57;8.60;99.90
3756;DHT22;1893;52.526;13.360;2024-01-30T14:10:23;8.60;99.90
3756;DHT22;1893;52.526;13.360;2024-01-30T14:12:49;8.60;99.90
3756;DHT22;1893;52.526;13.360;2024-01-30T14:15:15;8.60;99.90
3756;DHT22;1893;52.526;13.360;2024-01-30T14:17:43;8.70;99.90
3756;DHT22;1893;52.526;13.360;2024-01-30T14:20:09;8.60;99.90
3756;DHT22;1893;52.526;13.360;2024-01-30T14:22:36;8.60;99.90
3756;DHT22;1893;52.526;13.360;2024-01-30T14:25:02;8.70;99.90
3756;DHT22;1893;52.526;13.360;2024-01-30T14:27:29;8.60;99.90
3756;DHT22;1893;52.526;13.360;2024-01-30T14:29:56;8.60;99.90
3756;DHT22;1893;52.526;13.360;2024-01-30T14:32:22;8.60;99.90
3756;DHT22;1893;52.526;13.360;2024-01-30T14:34:49;8.60;99.90
3756;DHT22;1893;52.526;13.360;2024-01-30T14:37:15;8.70;99.90
3756;DHT22;1893;52.526;13.360;2024-01-30T14:39:40;8.70;99.90
3756;DHT22;1893;52.526;13.360;2024-01-30T14:42:07;8.70;99.90
3756;DHT22;1893;52.526;13.360;2024-01-30T14:44:32;8.60;99.90
3756;DHT22;1893;52.526;13.360;2024-01-30T14:46:59;8.60;99.90
3756;DHT22;1893;52.526;13.360;2024-01-30T14:49:25;8.60;99.90
3756;DHT22;1893;52.526;13.360;2024-01-30T14:51:51;8.60;99.90
3756;DHT22;1893;52.526;13.360;2024-01-30T14:54:16;8.60;99.90
3756;DHT22;1893;52.526;13.360;2024-01-30T14:56:42;8.50;99.90
3756;DHT22;1893;52.526;13.360;2024-01-30T14:59:08;8.60;99.90
3756;DHT22;1893;52.526;13.360;2024-01-30T15:01:33;8.50;99.90
3756;DHT22;1893;52.526;13.360;2024-01-30T15:03:59;8.50;99.90
3756;DHT22;1893;52.526;13.360;2024-01-30T15:06:24;8.50;99.90
3756;DHT22;1893;52.526;13.360;2024-01-30T15:08:51;8.50;99.90
3756;DHT22;1893;52.526;13.360;2024-01-30T15:11:17;8.40;99.90
3756;DHT22;1893;52.526;13.360;2024-01-30T15:13:42;8.40;99.90
3756;DHT22;1893;52.526;13.360;2024-01-30T15:16:08;8.40;99.90
3756;DHT22;1893;52.526;13.360;2024-01-30T15:18:34;8.30;99.90
3756;DHT22;1893;52.526;13.360;2024-01-30T15:21:00;8.30;99.90
3756;DHT22;1893;52.526;13.360;2024-01-30T15:23:25;8.50;99.90
3756;DHT22;1893;52.526;13.360;2024-01-30T15:25:51;8.40;99.90
3756;DHT22;1893;52.526;13.360;2024-01-30T15:28:16;8.30;99.90
3756;DHT22;1893;52.526;13.360;2024-01-30T15:30:42;8.30;99.90
3756;DHT22;1893;52.526;13.360;2024-01-30T15:33:12;8.30;99.90
3756;DHT22;1893;52.526;13.360;2024-01-30T15:35:37;8.30;99.90
3756;DHT22;1893;52.526;13.360;2024-01-30T15:38:04;8.20;99.90
3756;DHT22;1893;52.526;13.360;2024-01-30T15:40:34;8.20;99.90
3756;DHT22;1893;52.526;13.360;2024-01-30T15:42:59;8.20;99.90
3756;DHT22;1893;52.526;13.360;2024-01-30T15:45:25;8.20;99.90
3756;DHT22;1893;52.526;13.360;2024-01-30T15:47:51;8.10;99.90
3756;DHT22;1893;52.526;13.360;2024-01-30T15:50:17;8.20;99.90
3756;DHT22;1893;52.526;13.360;2024-01-30T15:52:42;8.20;99.90
3756;DHT22;1893;52.526;13.360;2024-01-30T15:55:08;8.20;99.90
3756;DHT22;1893;52.526;13.360;2024-01-30T15:57:34;8.20;99.90
3756;DHT22;1893;52.526;13.360;2024-01-30T15:59:59;8.10;99.90
3756;DHT22;1893;52.526;13.360;2024-01-30T16:02:26;8.10;99.90